Skip Navigation Links Skip Navigation Links

Current Weather

Boryspil, Kiev, Ukraine

For information only: do not use for flight planning or navigation.
Latest weather
Observation time Friday, June 22, 2018 12:30 AM EEST
Local time Friday, June 22, 2018 12:54 AM EEST
Flight conditions Visual Meteorological Conditions
Winds
Wind direction South (190°)
Winds variable from 170° to 230°
Wind speed 7 mph
Visibility 6.2 mi.
Sky condition
Ceiling unlimited
Sky clear
Temperature 72°F
Dewpoint 57°F
Altimeter 29.85 in.Hg
Derived measurements
Relative humidity 61%
Density altitude 1662 ft.
Remarks
Ceiling and visibility OK.
No significant changes expected in the next two hours.
METAR UKKK 212130Z 19003MPS 170V230 CAVOK 22/14 Q1011 R26/70D NOSIG

Settings

Location code

InnerDrive.Weather 4.0.6615.0 Release CLR 4.0.30319.42000
Copyright ©2018 Inner Drive Technology. All rights reserved. Portions Copyright ©1986-2018 David Braverman.

Find weather

Site navigation


Skip Navigation Links

Place info

Page info

PayPal - The safer, easier way to pay online!

Return home.

Copyright ©2018 Inner Drive Technology. Purveyors of fine, hand-crafted computer software. Page printed 2018-06-21T21:54:13 UTC.